Bronson, Michigan
Current Conditions -  °F | °C
As of 4:34 PM on Wednesday 26 Nov 2014 (Local Time) from KOEB Reporting Station
Overcast Overcast  
Wind Chill: -1°   Ceiling: 2300
Heat Index: -1°   Visibility: 10mi
Dew Point: -6°   Wind: 0mph
Humidity: 70%   Direction: NA
Pressure: 30.1"   Gusts: NA
Location:  41.87°N, 85.19°W
Report Text: KOEB 262134Z AUTO 00000KT 10SM BKN023 OVC029 M01/M05 A3010 RMK AO2 T10061055
Loading
Personal Weather Stations






























Interactive Weather Map New forecast layout! Learn more

10-Day Weather Forecast

Advertisements
Track Severe Weather on mobile